Time;durP1;ratioP1;P1;durP2;ratioP2;P2;SDS_P1;SDS_P2;PMS_P1;PMS_P2;Temp;Humidity;BMP_temperature;BMP_pressure;BME280_temperature;BME280_humidity;BME280_pressure;Samples;Min_cycle;Max_cycle;Signal;HPM_P1;HPM_P2
2022/08/16 00:00:49;;;;;;;5.23;4.23;;;;;;;;;;4986874;28;20479;-78
2022/08/16 00:03:19;;;;;;;6.43;4.73;;;;;;;;;;4974798;28;20437;-78
2022/08/16 00:05:45;;;;;;;4.77;4.23;;;;;;;;;;4982571;28;20436;-79
2022/08/16 00:08:11;;;;;;;6.93;4.17;;;;;;;;;;4975800;28;20443;-79
2022/08/16 00:10:37;;;;;;;5.63;4.13;;;;;;;;;;5005756;28;20424;-79
2022/08/16 00:13:24;;;;;;;4.57;3.97;;;;;;;;;;4961397;28;21055;-79
2022/08/16 00:15:50;;;;;;;3.33;3.03;;;;;;;;;;5003004;28;20769;-78
2022/08/16 00:18:25;;;;;;;4.57;4.17;;;;;;;;;;4974382;28;21059;-78
2022/08/16 00:20:51;;;;;;;4.77;4.00;;;;;;;;;;5005605;28;20471;-78
2022/08/16 00:23:35;;;;;;;5.20;4.10;;;;;;;;;;4983217;28;20447;-80
2022/08/16 00:26:01;;;;;;;5.17;4.07;;;;;;;;;;4999801;28;20539;-78
2022/08/16 00:28:27;;;;;;;5.33;3.80;;;;;;;;;;4999679;28;20543;-78
2022/08/16 00:30:53;;;;;;;4.50;4.10;;;;;;;;;;5000443;28;20207;-78
2022/08/16 00:33:19;;;;;;;5.27;4.40;;;;;;;;;;4974935;28;21199;-80
2022/08/16 00:35:45;;;;;;;4.13;3.77;;;;;;;;;;4994874;28;20432;-78
2022/08/16 00:38:16;;;;;;;4.90;4.03;;;;;;;;;;4966032;28;20948;-79
2022/08/16 00:40:42;;;;;;;3.90;3.50;;;;;;;;;;5003671;28;20487;-78
2022/08/16 00:43:15;;;;;;;4.97;3.90;;;;;;;;;;4984144;28;20482;-79
2022/08/16 00:45:50;;;;;;;8.63;4.30;;;;;;;;;;4987244;28;20448;-78
2022/08/16 00:48:16;;;;;;;4.40;3.90;;;;;;;;;;4975277;28;21114;-79
2022/08/16 00:50:42;;;;;;;3.93;3.40;;;;;;;;;;4976880;28;20448;-78
2022/08/16 00:53:10;;;;;;;4.50;4.00;;;;;;;;;;4994820;28;20680;-78
2022/08/16 00:55:37;;;;;;;4.70;3.97;;;;;;;;;;4981034;28;20829;-78
2022/08/16 00:58:20;;;;;;;5.57;4.27;;;;;;;;;;4984499;28;20553;-79
2022/08/16 01:00:49;;;;;;;4.60;4.20;;;;;;;;;;4991939;28;20475;-78
2022/08/16 01:03:16;;;;;;;5.97;4.50;;;;;;;;;;4941597;28;20486;-78
2022/08/16 01:05:42;;;;;;;5.80;4.83;;;;;;;;;;4965223;28;22067;-79
2022/08/16 01:08:09;;;;;;;4.30;3.90;;;;;;;;;;4961683;28;20451;-78
2022/08/16 01:10:35;;;;;;;4.93;4.30;;;;;;;;;;4996097;28;20436;-79
2022/08/16 01:13:10;;;;;;;4.63;4.13;;;;;;;;;;4991242;28;20559;-79
2022/08/16 01:15:37;;;;;;;4.40;4.00;;;;;;;;;;4995780;28;20439;-78
2022/08/16 01:18:13;;;;;;;5.20;4.07;;;;;;;;;;4998341;28;20429;-80
2022/08/16 01:20:40;;;;;;;7.77;4.43;;;;;;;;;;4999410;28;20479;-78
2022/08/16 01:23:09;;;;;;;6.20;4.30;;;;;;;;;;4977058;28;20440;-78
2022/08/16 01:25:36;;;;;;;4.80;3.70;;;;;;;;;;5002462;28;20829;-80
2022/08/16 01:28:31;;;;;;;4.90;4.50;;;;;;;;;;4983816;28;20441;-78
2022/08/16 01:30:57;;;;;;;4.63;3.80;;;;;;;;;;4996855;28;20476;-78
2022/08/16 01:33:24;;;;;;;5.33;4.60;;;;;;;;;;4980772;28;20435;-79
2022/08/16 01:35:57;;;;;;;5.50;3.93;;;;;;;;;;4984607;28;20542;-79
2022/08/16 01:38:23;;;;;;;6.20;4.33;;;;;;;;;;4960826;28;20472;-78
2022/08/16 01:40:49;;;;;;;3.90;3.60;;;;;;;;;;4996189;28;20512;-79
2022/08/16 01:43:19;;;;;;;5.03;4.50;;;;;;;;;;4998300;28;20438;-79
2022/08/16 01:45:45;;;;;;;4.90;4.40;;;;;;;;;;5002070;28;20447;-79
2022/08/16 01:48:11;;;;;;;3.80;3.40;;;;;;;;;;4992902;28;20519;-79
2022/08/16 01:50:37;;;;;;;6.37;4.20;;;;;;;;;;5000674;28;20514;-80
2022/08/16 01:53:03;;;;;;;6.40;4.37;;;;;;;;;;4990159;28;21356;-79
2022/08/16 01:55:30;;;;;;;4.43;4.03;;;;;;;;;;4999022;28;20455;-79
2022/08/16 01:58:00;;;;;;;4.90;4.23;;;;;;;;;;4976611;28;20457;-79
2022/08/16 02:00:29;;;;;;;4.20;3.80;;;;;;;;;;4997903;28;20488;-79
2022/08/16 02:03:18;;;;;;;4.73;4.00;;;;;;;;;;4993756;28;20432;-79
2022/08/16 02:05:44;;;;;;;4.63;3.90;;;;;;;;;;4995933;28;20440;-77
2022/08/16 02:08:10;;;;;;;4.77;4.30;;;;;;;;;;4973156;28;20550;-78
2022/08/16 02:10:42;;;;;;;4.60;4.20;;;;;;;;;;5003816;28;20452;-79
2022/08/16 02:13:08;;;;;;;8.00;5.13;;;;;;;;;;4997459;28;20256;-79
2022/08/16 02:15:35;;;;;;;4.40;3.83;;;;;;;;;;5003941;28;20593;-78
2022/08/16 02:18:08;;;;;;;4.77;3.97;;;;;;;;;;5001174;28;20381;-78
2022/08/16 02:20:38;;;;;;;7.03;4.37;;;;;;;;;;4984563;28;20511;-78
2022/08/16 02:23:26;;;;;;;4.10;3.53;;;;;;;;;;4975235;28;20486;-78
2022/08/16 02:25:54;;;;;;;4.43;3.70;;;;;;;;;;5007378;28;20471;-78
2022/08/16 02:28:32;;;;;;;5.43;4.40;;;;;;;;;;4974393;28;20437;-78
2022/08/16 02:30:59;;;;;;;4.83;4.20;;;;;;;;;;4993833;28;20482;-77
2022/08/16 02:33:25;;;;;;;4.70;4.20;;;;;;;;;;4970376;28;20502;-78
2022/08/16 02:36:22;;;;;;;5.33;4.37;;;;;;;;;;5004255;28;20463;-78
2022/08/16 02:38:49;;;;;;;7.63;4.00;;;;;;;;;;4922786;28;20501;-78
2022/08/16 02:41:23;;;;;;;4.93;4.47;;;;;;;;;;4978791;28;20471;-79
2022/08/16 02:43:49;;;;;;;5.83;4.47;;;;;;;;;;4990006;28;20935;-78
2022/08/16 02:46:15;;;;;;;4.07;3.67;;;;;;;;;;4982233;28;20459;-78
2022/08/16 02:48:53;;;;;;;4.20;3.80;;;;;;;;;;4986563;28;20436;-77
2022/08/16 02:51:19;;;;;;;6.70;4.20;;;;;;;;;;4995851;28;20420;-77
2022/08/16 02:57:12;;;;;;;4.13;3.70;;;;;;;;;;4965829;28;20466;-77
2022/08/16 02:59:41;;;;;;;4.43;3.90;;;;;;;;;;4966140;28;20464;-78
2022/08/16 03:02:07;;;;;;;4.30;3.90;;;;;;;;;;5012038;28;20441;-77
2022/08/16 03:04:33;;;;;;;5.50;5.03;;;;;;;;;;5002219;28;20512;-78
2022/08/16 03:06:59;;;;;;;4.47;4.07;;;;;;;;;;5003694;28;20501;-77
2022/08/16 03:10:05;;;;;;;5.67;5.17;;;;;;;;;;4984427;28;20440;-79
2022/08/16 03:12:31;;;;;;;4.33;3.70;;;;;;;;;;4919981;28;20550;-78
2022/08/16 03:15:14;;;;;;;4.50;4.10;;;;;;;;;;4947132;28;20451;-79
2022/08/16 03:17:52;;;;;;;4.07;3.70;;;;;;;;;;4908066;29;20906;-78
2022/08/16 03:20:33;;;;;;;5.00;4.07;;;;;;;;;;4906001;28;20556;-78
2022/08/16 03:23:00;;;;;;;5.43;4.10;;;;;;;;;;4979700;28;20471;-78
2022/08/16 03:25:33;;;;;;;5.10;3.60;;;;;;;;;;4984962;28;22204;-79
2022/08/16 03:27:59;;;;;;;4.07;3.67;;;;;;;;;;4985441;28;21240;-79
2022/08/16 03:30:26;;;;;;;4.33;4.00;;;;;;;;;;4964606;28;20567;-78
2022/08/16 03:33:02;;;;;;;4.60;4.00;;;;;;;;;;4998943;28;20443;-80
2022/08/16 03:38:51;;;;;;;4.07;3.63;;;;;;;;;;4985066;28;22389;-79
2022/08/16 03:41:40;;;;;;;5.77;4.23;;;;;;;;;;4994095;28;20507;-80
2022/08/16 03:44:09;;;;;;;3.90;3.57;;;;;;;;;;5000722;28;20974;-79
2022/08/16 03:46:35;;;;;;;4.43;3.87;;;;;;;;;;4970829;28;20452;-80
2022/08/16 03:49:10;;;;;;;5.73;5.00;;;;;;;;;;5008784;28;20446;-80
2022/08/16 03:51:36;;;;;;;4.53;4.10;;;;;;;;;;4990929;28;20451;-79
2022/08/16 03:54:03;;;;;;;5.60;4.53;;;;;;;;;;4998806;28;21280;-79
2022/08/16 03:56:29;;;;;;;5.93;4.90;;;;;;;;;;4970866;28;21608;-80
2022/08/16 03:59:01;;;;;;;6.53;4.43;;;;;;;;;;5010497;28;20483;-79
2022/08/16 04:01:27;;;;;;;4.87;4.47;;;;;;;;;;4966133;28;20967;-79
2022/08/16 04:03:53;;;;;;;5.20;4.70;;;;;;;;;;4986913;28;20512;-77
2022/08/16 04:06:20;;;;;;;4.87;3.90;;;;;;;;;;4998596;28;20381;-77
2022/08/16 04:09:13;;;;;;;5.40;4.87;;;;;;;;;;5007338;28;20432;-78
2022/08/16 04:11:45;;;;;;;6.20;4.80;;;;;;;;;;4990987;28;20448;-78
2022/08/16 04:14:14;;;;;;;4.23;3.83;;;;;;;;;;4987661;28;20924;-79
2022/08/16 04:16:40;;;;;;;4.53;3.70;;;;;;;;;;4957089;28;21189;-79
2022/08/16 04:19:06;;;;;;;4.37;3.93;;;;;;;;;;4984012;28;20443;-79
2022/08/16 04:21:32;;;;;;;4.97;4.07;;;;;;;;;;5001719;28;20940;-79
2022/08/16 04:23:59;;;;;;;4.90;4.50;;;;;;;;;;4994967;28;20527;-80
2022/08/16 04:26:37;;;;;;;7.70;4.67;;;;;;;;;;4998973;28;20442;-79
2022/08/16 04:29:03;;;;;;;7.13;5.03;;;;;;;;;;4987124;28;20444;-79
2022/08/16 04:34:22;;;;;;;6.23;4.40;;;;;;;;;;4977320;28;20445;-79
2022/08/16 04:36:54;;;;;;;4.33;3.93;;;;;;;;;;4984249;28;20456;-78
2022/08/16 04:39:20;;;;;;;5.33;4.83;;;;;;;;;;4998735;28;20499;-78
2022/08/16 04:41:50;;;;;;;4.43;4.00;;;;;;;;;;4973358;28;22331;-78
2022/08/16 04:44:19;;;;;;;5.20;4.67;;;;;;;;;;4971128;28;20444;-78
2022/08/16 04:47:13;;;;;;;4.97;3.90;;;;;;;;;;4994780;28;20545;-80
2022/08/16 04:49:43;;;;;;;6.00;5.13;;;;;;;;;;4977357;28;20444;-79
2022/08/16 04:52:09;;;;;;;7.40;5.07;;;;;;;;;;4965070;28;21101;-79
2022/08/16 04:55:07;;;;;;;5.20;4.70;;;;;;;;;;4996411;28;20428;-79
2022/08/16 04:57:32;;;;;;;5.40;4.20;;;;;;;;;;4991346;28;20444;-79
2022/08/16 04:59:58;;;;;;;4.50;4.10;;;;;;;;;;4995959;28;20480;-79
2022/08/16 05:02:24;;;;;;;5.20;4.60;;;;;;;;;;4976515;28;20319;-79
2022/08/16 05:04:50;;;;;;;5.80;3.73;;;;;;;;;;5000487;28;21760;-79
2022/08/16 05:07:16;;;;;;;5.80;4.70;;;;;;;;;;5000110;28;20440;-77
2022/08/16 05:09:42;;;;;;;4.80;4.33;;;;;;;;;;5005003;28;20181;-78
2022/08/16 05:12:08;;;;;;;5.43;5.00;;;;;;;;;;4997080;28;20456;-78
2022/08/16 05:14:54;;;;;;;5.77;5.27;;;;;;;;;;4994697;28;20515;-78
2022/08/16 05:17:41;;;;;;;6.30;4.77;;;;;;;;;;4974695;28;20452;-77
2022/08/16 05:20:13;;;;;;;7.50;5.43;;;;;;;;;;4956179;28;20601;-77
2022/08/16 05:22:41;;;;;;;5.60;5.03;;;;;;;;;;4998966;28;20440;-76
2022/08/16 05:25:07;;;;;;;4.97;4.43;;;;;;;;;;5000259;28;20904;-76
2022/08/16 05:27:33;;;;;;;5.53;4.93;;;;;;;;;;4996618;28;20436;-76
2022/08/16 05:30:03;;;;;;;4.70;4.30;;;;;;;;;;4989388;28;20440;-77
2022/08/16 05:32:29;;;;;;;4.40;4.00;;;;;;;;;;4977013;28;20452;-76
2022/08/16 05:35:11;;;;;;;8.33;5.43;;;;;;;;;;4991400;28;20660;-78
2022/08/16 05:37:37;;;;;;;4.87;4.37;;;;;;;;;;4986702;28;20445;-76
2022/08/16 05:40:04;;;;;;;7.63;4.67;;;;;;;;;;4989108;28;20464;-76
2022/08/16 05:42:33;;;;;;;5.93;5.33;;;;;;;;;;5009586;28;20448;-77
2022/08/16 05:45:09;;;;;;;4.93;4.43;;;;;;;;;;5004090;28;20436;-76
2022/08/16 05:47:35;;;;;;;9.23;5.10;;;;;;;;;;5005095;28;20547;-76
2022/08/16 05:50:36;;;;;;;4.90;4.40;;;;;;;;;;5001728;28;20436;-78
2022/08/16 05:53:02;;;;;;;5.30;4.63;;;;;;;;;;4977512;28;20475;-76
2022/08/16 05:55:28;;;;;;;5.10;4.70;;;;;;;;;;5004402;28;20436;-76
2022/08/16 05:57:54;;;;;;;6.33;5.40;;;;;;;;;;5013564;28;20443;-76
2022/08/16 06:00:20;;;;;;;5.00;4.30;;;;;;;;;;4989580;28;20299;-77
2022/08/16 06:02:46;;;;;;;5.57;5.00;;;;;;;;;;4993048;28;20538;-77
2022/08/16 06:05:12;;;;;;;6.10;4.80;;;;;;;;;;5008619;28;20440;-77
2022/08/16 06:07:38;;;;;;;5.20;4.70;;;;;;;;;;4995087;28;20455;-75
2022/08/16 06:10:08;;;;;;;5.27;4.77;;;;;;;;;;4967430;28;22980;-77
2022/08/16 06:12:34;;;;;;;6.60;4.83;;;;;;;;;;4976706;28;20435;-76
2022/08/16 06:15:02;;;;;;;5.50;5.00;;;;;;;;;;5004691;28;20982;-76
2022/08/16 06:17:28;;;;;;;5.33;4.50;;;;;;;;;;4975252;28;20528;-78
2022/08/16 06:20:14;;;;;;;6.30;5.60;;;;;;;;;;4991523;28;20498;-77
2022/08/16 06:22:43;;;;;;;5.53;4.80;;;;;;;;;;4992947;28;20528;-77
2022/08/16 06:25:22;;;;;;;5.27;4.87;;;;;;;;;;4979582;28;21086;-78
2022/08/16 06:27:49;;;;;;;6.63;4.67;;;;;;;;;;4989561;28;20465;-77
2022/08/16 06:30:15;;;;;;;5.83;5.33;;;;;;;;;;4984345;28;20458;-77
2022/08/16 06:33:12;;;;;;;5.27;4.20;;;;;;;;;;4978180;28;20460;-77
2022/08/16 06:35:38;;;;;;;5.93;5.10;;;;;;;;;;4986964;28;20437;-75
2022/08/16 06:38:23;;;;;;;5.40;4.90;;;;;;;;;;5011833;28;20447;-76
2022/08/16 06:40:49;;;;;;;5.27;4.83;;;;;;;;;;4983553;28;20487;-76
2022/08/16 06:43:19;;;;;;;11.23;5.90;;;;;;;;;;5011958;28;20416;-76
2022/08/16 06:45:55;;;;;;;5.83;5.03;;;;;;;;;;4985670;28;21009;-76
2022/08/16 06:48:24;;;;;;;6.07;5.47;;;;;;;;;;4996882;28;20527;-75
2022/08/16 06:50:51;;;;;;;5.50;4.73;;;;;;;;;;4989403;28;20455;-78
2022/08/16 06:53:17;;;;;;;5.47;4.70;;;;;;;;;;5008233;28;20452;-75
2022/08/16 06:55:46;;;;;;;6.60;6.00;;;;;;;;;;4944631;28;20439;-76
2022/08/16 06:58:17;;;;;;;6.13;4.87;;;;;;;;;;4992782;28;21022;-77
2022/08/16 07:00:43;;;;;;;6.63;5.73;;;;;;;;;;4975427;28;21076;-77
2022/08/16 07:03:09;;;;;;;5.77;5.27;;;;;;;;;;4993737;28;20436;-77
2022/08/16 07:05:36;;;;;;;5.67;5.10;;;;;;;;;;4989498;28;20498;-77
2022/08/16 07:08:05;;;;;;;6.30;5.70;;;;;;;;;;4980581;28;20436;-78
2022/08/16 07:10:31;;;;;;;5.80;5.10;;;;;;;;;;4993606;28;20436;-78
2022/08/16 07:12:57;;;;;;;7.07;5.20;;;;;;;;;;4987357;28;21485;-78
2022/08/16 07:15:23;;;;;;;6.23;5.63;;;;;;;;;;5004936;28;20475;-77
2022/08/16 07:17:53;;;;;;;6.03;5.53;;;;;;;;;;4972148;28;20428;-77
2022/08/16 07:20:32;;;;;;;7.37;6.30;;;;;;;;;;4987224;28;20546;-77
2022/08/16 07:22:58;;;;;;;6.33;5.80;;;;;;;;;;4981995;28;20450;-77
2022/08/16 07:31:55;;;;;;;7.07;5.67;;;;;;;;;;4986288;28;20458;-77
2022/08/16 07:34:21;;;;;;;8.30;6.27;;;;;;;;;;4984138;28;20472;-78
2022/08/16 07:37:18;;;;;;;7.53;6.83;;;;;;;;;;4995430;28;20591;-77
2022/08/16 07:39:47;;;;;;;7.57;6.53;;;;;;;;;;5010600;28;20448;-79
2022/08/16 07:42:13;;;;;;;6.70;5.90;;;;;;;;;;4964866;28;21430;-76
2022/08/16 07:44:39;;;;;;;7.40;6.57;;;;;;;;;;4988281;28;20504;-77
2022/08/16 07:47:08;;;;;;;6.87;6.17;;;;;;;;;;5007464;28;20963;-77
2022/08/16 07:49:34;;;;;;;7.57;6.40;;;;;;;;;;4978992;28;20439;-80
2022/08/16 07:52:33;;;;;;;6.83;6.13;;;;;;;;;;4995045;28;20472;-78
2022/08/16 07:55:02;;;;;;;6.83;6.10;;;;;;;;;;4956948;28;20432;-78
2022/08/16 07:57:28;;;;;;;8.00;6.70;;;;;;;;;;4960782;28;20445;-76
2022/08/16 07:59:54;;;;;;;7.67;6.97;;;;;;;;;;5005233;28;20915;-79
2022/08/16 08:02:24;;;;;;;6.73;5.70;;;;;;;;;;4982180;28;22019;-80
2022/08/16 08:04:50;;;;;;;7.53;5.97;;;;;;;;;;5011117;28;20428;-76
2022/08/16 08:07:16;;;;;;;6.57;6.07;;;;;;;;;;4966988;28;23186;-76
2022/08/16 08:09:45;;;;;;;6.00;5.40;;;;;;;;;;5009328;28;20950;-77
2022/08/16 08:12:32;;;;;;;7.03;6.27;;;;;;;;;;4976716;28;20536;-78
2022/08/16 08:14:58;;;;;;;5.93;5.43;;;;;;;;;;5011189;28;21416;-79
2022/08/16 08:17:24;;;;;;;6.43;5.87;;;;;;;;;;4998862;28;20955;-77
2022/08/16 08:20:00;;;;;;;6.80;6.10;;;;;;;;;;4986642;28;20528;-77
2022/08/16 08:22:26;;;;;;;7.03;6.33;;;;;;;;;;5005106;28;20450;-77
2022/08/16 08:24:52;;;;;;;6.77;6.17;;;;;;;;;;4985123;28;20846;-78
2022/08/16 08:27:18;;;;;;;7.50;6.90;;;;;;;;;;5005207;28;20966;-77
2022/08/16 08:30:18;;;;;;;7.23;6.53;;;;;;;;;;4984072;28;20483;-76
2022/08/16 08:32:37;;;;;;;9.33;6.50;;;;;;;;;;5001818;28;20435;-79
2022/08/16 08:35:06;;;;;;;6.97;6.23;;;;;;;;;;4980215;28;20428;-78
2022/08/16 08:37:34;;;;;;;7.10;6.40;;;;;;;;;;5004135;28;20448;-78
2022/08/16 08:40:02;;;;;;;6.70;5.50;;;;;;;;;;4988816;28;21466;-79
2022/08/16 08:42:51;;;;;;;7.87;6.67;;;;;;;;;;5006552;28;20436;-78
2022/08/16 08:45:16;;;;;;;9.40;7.17;;;;;;;;;;4953637;28;21002;-79
2022/08/16 08:47:45;;;;;;;7.23;6.60;;;;;;;;;;4999314;28;20440;-81
2022/08/16 08:50:11;;;;;;;6.50;5.87;;;;;;;;;;4977186;28;21516;-80
2022/08/16 08:52:52;;;;;;;7.50;6.90;;;;;;;;;;4974447;28;20487;-80
2022/08/16 08:55:21;;;;;;;8.67;7.13;;;;;;;;;;4982146;28;20455;-79
2022/08/16 08:57:47;;;;;;;8.27;6.50;;;;;;;;;;4998111;28;20452;-79
2022/08/16 09:00:13;;;;;;;10.80;6.43;;;;;;;;;;4996504;28;20472;-79
2022/08/16 09:03:09;;;;;;;6.33;5.73;;;;;;;;;;4993035;28;20432;-81
2022/08/16 09:05:35;;;;;;;8.27;6.30;;;;;;;;;;5000358;28;20439;-79
2022/08/16 09:08:01;;;;;;;6.20;5.60;;;;;;;;;;4980302;28;20876;-79
2022/08/16 09:10:27;;;;;;;7.97;6.73;;;;;;;;;;5002483;28;20492;-81
2022/08/16 09:12:53;;;;;;;10.30;8.33;;;;;;;;;;4981441;28;20432;-80
2022/08/16 09:15:20;;;;;;;7.40;6.70;;;;;;;;;;4997726;28;21072;-78
2022/08/16 09:17:46;;;;;;;8.17;7.37;;;;;;;;;;4985252;28;20441;-81
2022/08/16 09:20:13;;;;;;;15.33;7.27;;;;;;;;;;4989549;28;20499;-79
2022/08/16 09:22:45;;;;;;;6.87;6.27;;;;;;;;;;4989781;28;21197;-80
2022/08/16 09:25:12;;;;;;;6.97;5.60;;;;;;;;;;4996287;28;20444;-78
2022/08/16 09:27:43;;;;;;;7.33;6.63;;;;;;;;;;4994185;28;20768;-80
2022/08/16 09:30:10;;;;;;;7.90;6.50;;;;;;;;;;4994456;28;20440;-79
2022/08/16 09:32:59;;;;;;;7.50;6.23;;;;;;;;;;4975230;28;24286;-79
2022/08/16 09:35:27;;;;;;;6.67;6.00;;;;;;;;;;4987680;28;20451;-80
2022/08/16 09:37:53;;;;;;;7.30;6.03;;;;;;;;;;4985334;28;20922;-80
2022/08/16 09:40:22;;;;;;;6.87;6.27;;;;;;;;;;4984364;28;20486;-80
2022/08/16 09:42:48;;;;;;;9.67;6.10;;;;;;;;;;4985153;28;20436;-81
2022/08/16 09:45:14;;;;;;;8.47;7.67;;;;;;;;;;4975882;28;20468;-83
2022/08/16 09:47:41;;;;;;;7.83;7.03;;;;;;;;;;4990942;28;20726;-78
2022/08/16 09:50:11;;;;;;;7.47;6.10;;;;;;;;;;4990843;28;20425;-79
2022/08/16 09:52:37;;;;;;;6.37;5.87;;;;;;;;;;4971081;28;20464;-79
2022/08/16 09:55:08;;;;;;;7.83;7.03;;;;;;;;;;4972162;28;20451;-79
2022/08/16 09:57:53;;;;;;;7.60;7.00;;;;;;;;;;5001092;28;20762;-80
2022/08/16 10:00:23;;;;;;;7.63;6.33;;;;;;;;;;4996597;28;21045;-78
2022/08/16 10:03:04;;;;;;;7.73;6.93;;;;;;;;;;4982711;28;20438;-81
2022/08/16 10:05:40;;;;;;;6.73;6.13;;;;;;;;;;4989174;28;20444;-81
2022/08/16 10:08:06;;;;;;;6.03;5.53;;;;;;;;;;4975891;28;20525;-81
2022/08/16 10:10:35;;;;;;;8.67;7.00;;;;;;;;;;4988643;28;20440;-82
2022/08/16 10:13:13;;;;;;;6.20;5.60;;;;;;;;;;4965972;28;22134;-80
2022/08/16 10:15:43;;;;;;;7.30;6.60;;;;;;;;;;4973071;28;21291;-82
2022/08/16 10:18:11;;;;;;;7.07;6.37;;;;;;;;;;5002133;28;20435;-81
2022/08/16 10:20:38;;;;;;;7.77;6.40;;;;;;;;;;4992372;28;20476;-82
2022/08/16 10:23:04;;;;;;;7.37;6.10;;;;;;;;;;4975333;28;20442;-82
2022/08/16 10:25:30;;;;;;;6.87;6.27;;;;;;;;;;5001545;28;20444;-82
2022/08/16 10:27:59;;;;;;;7.47;6.30;;;;;;;;;;4973645;28;21550;-84
2022/08/16 10:30:28;;;;;;;7.60;6.03;;;;;;;;;;4987367;28;20274;-82
2022/08/16 10:32:54;;;;;;;7.80;6.20;;;;;;;;;;4960634;28;20490;-83
2022/08/16 10:35:21;;;;;;;7.13;6.53;;;;;;;;;;5005422;28;20447;-81
2022/08/16 10:38:03;;;;;;;7.80;6.43;;;;;;;;;;4979171;28;20686;-83
2022/08/16 10:40:29;;;;;;;6.83;6.23;;;;;;;;;;4987098;28;20624;-84
2022/08/16 10:42:56;;;;;;;6.17;5.50;;;;;;;;;;5008885;28;20444;-81
2022/08/16 10:45:24;;;;;;;5.90;5.40;;;;;;;;;;4968856;28;20452;-81
2022/08/16 10:47:50;;;;;;;5.93;5.43;;;;;;;;;;5012439;28;20447;-80
2022/08/16 10:50:17;;;;;;;11.13;6.37;;;;;;;;;;5010039;28;20447;-81
2022/08/16 10:52:43;;;;;;;7.23;6.10;;;;;;;;;;4979776;28;20444;-80
2022/08/16 10:55:11;;;;;;;6.70;6.10;;;;;;;;;;5007920;28;20494;-82
2022/08/16 10:57:37;;;;;;;6.73;5.93;;;;;;;;;;4969665;28;20450;-85
2022/08/16 11:00:08;;;;;;;6.67;6.07;;;;;;;;;;4993291;28;20444;-87
2022/08/16 11:02:34;;;;;;;7.07;6.03;;;;;;;;;;4983120;28;20452;-82
2022/08/16 11:05:00;;;;;;;6.67;6.07;;;;;;;;;;5009155;28;20448;-82
2022/08/16 11:07:26;;;;;;;6.93;6.10;;;;;;;;;;5005722;28;20523;-81
2022/08/16 11:09:52;;;;;;;6.77;6.10;;;;;;;;;;5002622;28;20436;-81
2022/08/16 11:12:17;;;;;;;6.10;5.60;;;;;;;;;;4978127;28;20451;-79
2022/08/16 11:14:43;;;;;;;7.77;6.37;;;;;;;;;;4985751;28;20957;-81
2022/08/16 11:17:12;;;;;;;8.57;7.70;;;;;;;;;;4978428;28;20483;-81
2022/08/16 11:19:40;;;;;;;7.13;6.43;;;;;;;;;;4997564;28;20856;-85
2022/08/16 11:22:06;;;;;;;7.20;6.50;;;;;;;;;;4979053;28;20468;-84
2022/08/16 11:24:32;;;;;;;6.50;5.90;;;;;;;;;;5003517;28;20436;-83
2022/08/16 11:26:59;;;;;;;6.20;5.60;;;;;;;;;;4992724;28;20452;-85
2022/08/16 11:29:25;;;;;;;6.60;6.00;;;;;;;;;;4996760;28;20443;-86
2022/08/16 11:31:54;;;;;;;6.70;5.83;;;;;;;;;;4981951;28;20472;-85
2022/08/16 11:34:20;;;;;;;6.23;5.73;;;;;;;;;;4998038;28;20450;-78
2022/08/16 11:36:46;;;;;;;5.97;5.47;;;;;;;;;;4993509;28;20435;-79
2022/08/16 11:39:12;;;;;;;9.53;6.27;;;;;;;;;;5004717;28;20455;-78
2022/08/16 11:41:38;;;;;;;7.57;5.03;;;;;;;;;;4991143;28;20481;-77
2022/08/16 11:44:05;;;;;;;7.13;6.27;;;;;;;;;;4999748;28;20432;-78
2022/08/16 11:46:34;;;;;;;7.80;6.70;;;;;;;;;;4972165;28;23204;-78
2022/08/16 11:49:01;;;;;;;7.23;5.77;;;;;;;;;;4998493;28;20444;-80
2022/08/16 11:51:27;;;;;;;6.30;5.80;;;;;;;;;;4965941;28;21053;-80
2022/08/16 11:53:53;;;;;;;6.57;6.07;;;;;;;;;;5002300;28;20954;-77
2022/08/16 11:56:20;;;;;;;6.27;5.77;;;;;;;;;;4977731;28;20436;-79
2022/08/16 11:58:46;;;;;;;8.23;4.70;;;;;;;;;;4983789;28;20471;-78
2022/08/16 12:01:16;;;;;;;6.13;5.63;;;;;;;;;;4991013;28;20464;-80
2022/08/16 12:03:42;;;;;;;6.17;5.37;;;;;;;;;;4981182;28;20189;-79
2022/08/16 12:06:09;;;;;;;7.53;6.63;;;;;;;;;;4993665;28;20449;-78
2022/08/16 12:08:35;;;;;;;6.03;5.43;;;;;;;;;;4986716;28;20436;-78
2022/08/16 12:11:10;;;;;;;5.57;5.07;;;;;;;;;;5003154;28;20463;-78
2022/08/16 12:13:37;;;;;;;6.87;5.67;;;;;;;;;;4944180;28;21634;-79
2022/08/16 12:16:03;;;;;;;7.30;6.73;;;;;;;;;;4989752;28;20849;-81
2022/08/16 12:18:36;;;;;;;8.17;6.53;;;;;;;;;;4971350;28;20478;-79
2022/08/16 12:21:02;;;;;;;5.30;4.70;;;;;;;;;;4973252;28;20479;-80
2022/08/16 12:23:31;;;;;;;5.23;4.73;;;;;;;;;;4985727;28;20881;-78
2022/08/16 12:29:02;;;;;;;5.97;5.00;;;;;;;;;;5007813;28;20897;-77
2022/08/16 12:31:28;;;;;;;5.67;5.17;;;;;;;;;;4995986;28;21198;-80
2022/08/16 12:33:54;;;;;;;6.40;5.40;;;;;;;;;;4976128;28;20463;-78
2022/08/16 12:36:21;;;;;;;6.60;5.90;;;;;;;;;;4984568;28;20437;-80
2022/08/16 12:38:47;;;;;;;5.63;5.13;;;;;;;;;;4988418;28;20235;-82
2022/08/16 12:41:13;;;;;;;5.80;5.20;;;;;;;;;;4981579;28;20503;-79
2022/08/16 12:43:40;;;;;;;5.87;5.27;;;;;;;;;;5008244;28;20436;-78
2022/08/16 12:46:24;;;;;;;5.23;4.77;;;;;;;;;;4986175;28;20885;-78
2022/08/16 12:48:56;;;;;;;10.33;5.17;;;;;;;;;;5006789;28;20440;-78
2022/08/16 12:51:24;;;;;;;5.93;5.43;;;;;;;;;;4966507;28;20450;-79
2022/08/16 12:53:50;;;;;;;5.60;5.10;;;;;;;;;;5007221;28;20444;-82
2022/08/16 12:56:17;;;;;;;6.50;4.80;;;;;;;;;;4983595;28;20447;-81
2022/08/16 12:58:49;;;;;;;6.10;4.27;;;;;;;;;;5008946;28;20425;-78
2022/08/16 13:01:19;;;;;;;4.60;4.00;;;;;;;;;;4980132;28;20582;-78
2022/08/16 13:03:48;;;;;;;5.67;4.97;;;;;;;;;;5009591;28;20438;-78
2022/08/16 13:06:14;;;;;;;5.33;4.83;;;;;;;;;;4998269;28;21211;-80
2022/08/16 13:08:43;;;;;;;6.30;4.80;;;;;;;;;;5007056;28;20528;-78
2022/08/16 13:11:09;;;;;;;4.93;4.43;;;;;;;;;;4969809;28;20830;-77
2022/08/16 13:13:35;;;;;;;6.23;4.60;;;;;;;;;;5004229;28;20478;-77
2022/08/16 13:16:04;;;;;;;5.37;4.87;;;;;;;;;;5005830;28;20800;-78
2022/08/16 13:18:30;;;;;;;4.97;4.57;;;;;;;;;;4985663;28;20455;-79
2022/08/16 13:21:28;;;;;;;4.63;4.23;;;;;;;;;;4978710;28;21218;-80
2022/08/16 13:23:54;;;;;;;6.80;4.80;;;;;;;;;;4975463;28;20435;-79
2022/08/16 13:26:20;;;;;;;5.87;5.17;;;;;;;;;;5000908;28;20432;-78
2022/08/16 13:28:46;;;;;;;4.57;4.27;;;;;;;;;;5006016;28;20319;-78
2022/08/16 13:31:16;;;;;;;5.43;4.87;;;;;;;;;;4986236;28;20539;-79
2022/08/16 13:33:42;;;;;;;4.90;4.00;;;;;;;;;;5004025;28;20169;-78
2022/08/16 13:36:09;;;;;;;5.60;5.20;;;;;;;;;;4983044;28;20473;-78
2022/08/16 13:38:35;;;;;;;5.47;4.97;;;;;;;;;;4986149;28;20436;-78
2022/08/16 13:41:08;;;;;;;5.37;4.37;;;;;;;;;;4982043;28;20476;-79
2022/08/16 13:43:34;;;;;;;7.77;4.83;;;;;;;;;;4976142;28;20458;-78
2022/08/16 13:46:27;;;;;;;5.47;4.60;;;;;;;;;;5004297;28;20467;-78
2022/08/16 13:48:56;;;;;;;6.13;5.10;;;;;;;;;;4993539;28;20448;-78
2022/08/16 13:51:22;;;;;;;5.80;5.30;;;;;;;;;;4989358;28;20512;-79
2022/08/16 13:56:46;;;;;;;6.03;5.53;;;;;;;;;;4956925;28;20448;-78
2022/08/16 13:59:12;;;;;;;5.90;5.13;;;;;;;;;;5007305;28;20436;-78
2022/08/16 14:01:38;;;;;;;5.83;5.00;;;;;;;;;;4992741;28;20507;-77
2022/08/16 14:04:08;;;;;;;6.07;5.50;;;;;;;;;;5010491;28;20442;-78
2022/08/16 14:06:33;;;;;;;7.03;5.40;;;;;;;;;;4986089;28;20429;-78
2022/08/16 14:09:03;;;;;;;6.00;5.50;;;;;;;;;;5008109;28;20486;-76
2022/08/16 14:11:29;;;;;;;7.20;6.50;;;;;;;;;;4999533;28;20428;-79
2022/08/16 14:14:21;;;;;;;6.30;5.80;;;;;;;;;;5004329;28;20436;-77
2022/08/16 14:16:47;;;;;;;6.20;4.97;;;;;;;;;;4978654;28;20487;-78
2022/08/16 14:19:17;;;;;;;5.00;4.50;;;;;;;;;;4987654;28;20487;-79
2022/08/16 14:21:44;;;;;;;8.30;5.13;;;;;;;;;;4986337;28;20225;-78
2022/08/16 14:24:10;;;;;;;5.03;4.60;;;;;;;;;;4995397;28;20457;-78
2022/08/16 14:26:36;;;;;;;5.90;5.30;;;;;;;;;;4975158;28;21017;-79
2022/08/16 14:29:02;;;;;;;7.40;6.70;;;;;;;;;;4999603;28;20464;-79
2022/08/16 14:31:28;;;;;;;8.43;6.30;;;;;;;;;;4975130;28;20401;-80
2022/08/16 14:33:57;;;;;;;8.23;6.77;;;;;;;;;;4956513;28;20177;-80
2022/08/16 14:36:36;;;;;;;5.73;5.23;;;;;;;;;;5001312;28;20451;-77
2022/08/16 14:39:02;;;;;;;5.70;4.90;;;;;;;;;;4992744;28;20440;-79
2022/08/16 14:41:28;;;;;;;6.80;6.10;;;;;;;;;;4985787;28;20487;-79
2022/08/16 14:43:57;;;;;;;5.33;4.83;;;;;;;;;;4981977;28;20972;-80
2022/08/16 14:46:23;;;;;;;5.93;5.43;;;;;;;;;;4999706;28;20816;-79
2022/08/16 14:48:49;;;;;;;5.97;5.27;;;;;;;;;;4972817;28;20503;-80
2022/08/16 14:51:34;;;;;;;6.30;5.70;;;;;;;;;;4998288;28;20443;-79
2022/08/16 14:54:41;;;;;;;5.97;5.20;;;;;;;;;;4982902;28;20462;-79
2022/08/16 14:57:07;;;;;;;5.90;5.30;;;;;;;;;;4986752;28;20443;-78
2022/08/16 14:59:50;;;;;;;11.23;6.13;;;;;;;;;;4973755;28;21724;-81
2022/08/16 15:02:17;;;;;;;6.70;5.87;;;;;;;;;;4982036;28;20500;-79
2022/08/16 15:04:43;;;;;;;5.67;5.13;;;;;;;;;;4987411;28;20535;-79
2022/08/16 15:07:12;;;;;;;8.87;6.97;;;;;;;;;;4974300;28;20475;-80
2022/08/16 15:09:43;;;;;;;5.80;5.03;;;;;;;;;;5002216;28;20531;-78
2022/08/16 15:12:19;;;;;;;5.67;5.17;;;;;;;;;;4963718;28;20483;-79
2022/08/16 15:15:00;;;;;;;7.33;5.80;;;;;;;;;;5002420;28;20955;-78
2022/08/16 15:17:27;;;;;;;5.60;5.20;;;;;;;;;;4971771;28;21022;-78
2022/08/16 15:20:25;;;;;;;6.40;5.47;;;;;;;;;;4980822;28;20459;-80
2022/08/16 15:22:51;;;;;;;5.80;5.20;;;;;;;;;;4986794;28;20487;-78